[ ตารางข้อมูล ] [ Min-Max ] [ วันนี้4 ] [ วันนี้2 ] [ เทียบ3วัน A ] [ เทียบ4วัน B ]   

วันนี้2   [ ◀ ช่วงเก่ากว่า ] [ ช่วงที่ 254 ] [ ช่วงใหม่กว่า ▶ ] [ ล่าสุด ]    [ 3 ชั่วโมง ] [ 6 ชั่วโมง ] [ 12 ชั่วโมง ] [ 24 ชั่วโมง ]   วันนี้2

อุณภูมิตู้ Knockdown4529  ราย 3 ชั่วโมง  ที่วัดได้ ในช่วงวันเวลา 05/04/2026 (08:03) ถึง 05/04/2026 (11:03) 
ความชื้นในตู้ Knockdown4529  ราย 3 ชั่วโมง  ที่วัดได้ ในช่วงวันเวลา 05/04/2026 (08:03) ถึง 05/04/2026 (11:03) 

 
DS18B20SHTC3 
IDDate d/m/Y & Timedata1
สูง
data2
ต่ำ
data3
นอก
temp
pcb
hum
pcb
Time
 9006  05/04/2026 11:01:38  31.4  29.6  34.2  30.6  64.8  11:01 
 9005  05/04/2026 10:56:56  31.3  29.6  34.2  30.6  64.9  10:56 
 9004  05/04/2026 10:52:14  31.2  29.4  34.4  30.5  65.0  10:52 
 9003  05/04/2026 10:47:31  31.1  29.4  33.9  30.4  65.1  10:47 
 9002  05/04/2026 10:42:49  31.1  29.3  33.8  30.2  65.2  10:42 
 9001  05/04/2026 10:38:07  30.9  29.2  33.9  30.0  65.2  10:38 
 9000  05/04/2026 10:33:25  30.9  29.1  33.9  29.8  65.3  10:33 
 8999  05/04/2026 10:28:43  30.8  29.0  33.4  29.7  65.4  10:28 
 8998  05/04/2026 10:24:01  30.6  28.9  33.5  29.6  65.6  10:24 
 8997  05/04/2026 10:19:19  30.5  28.8  33.7  29.6  65.7  10:19 
 8996  05/04/2026 10:14:38  30.3  28.7  33.5  29.5  66.0  10:14 
 8995  05/04/2026 10:09:56  30.2  28.6  33.2  29.5  66.0  10:09 
 8994  05/04/2026 10:05:13  30.1  28.6  32.8  29.2  66.1  10:05 
 8993  05/04/2026 10:00:31  29.9  28.4  32.5  29.2  66.2  10:00 
 8992  05/04/2026 09:36:05  29.1  27.9  31.9  28.6  67.1  09:36 
 8991  05/04/2026 09:31:23  28.9  27.8  31.9  28.1  67.4  09:31 
 8990  05/04/2026 09:26:41  28.8  27.8  31.7  28.1  67.6  09:26 
 8989  05/04/2026 09:22:00  28.6  27.6  31.5  28.0  67.9  09:22 
 8988  05/04/2026 09:17:18  28.5  27.6  31.2  27.9  68.0  09:17 
 8987  05/04/2026 09:12:35  28.3  27.4  31.3  27.7  68.3  09:12 
 8986  05/04/2026 09:07:50  28.1  27.4  31.2  27.6  68.7  09:07 
 8985  05/04/2026 09:03:08  27.9  27.2  30.6  27.4  68.9  09:03 
 8984  05/04/2026 08:58:26  27.8  27.2  30.3  27.4  69.0  08:58 
 8983  05/04/2026 08:53:45  27.6  27.1  30.2  27.2  69.0  08:53 

Data every 5 minute.


ใช้เวลาประมวลผล 0.00219 วินาที